Briefing drone pour Saint-peray

Rechercher une autre localisation

Conditions de vol :


Nous sommes le : Mercredi 25 novembre 2020
Il est 02:16 UTC (03:16 LT)

Lever de soleil : 06:25 UTC (07:25 LT)
Coucher de soleil : 16:29 UTC (17:29 LT)

Météo

L'essentiel des conditions de vol

VIGILANCE MÉTÉO FRANCE - Ardèche (07)
Pas de vigilances particulieres
CARTE TEMSI
CARTES DES FRONTS
METAR de LFLU
LFLU 241800Z AUTO 17008KT CAVOK 08/05 Q1021

Date d'émission: 24/11/2020
Heure d'émission: 18:00 UTC
Vent: 170° pour 8 KT (15 km/h)
Visibilité horizontale: > 10 km
Plafond : Plafond et visibilité OK (CAVOK)
Température: 8 °C
Point de rosée: 5 °C
Humidité: 81%
Pression (QNH): 1021 hPa
Prévision 24h pour Valence (3 km)
Vent : 170° pour 1 KT (4 km/h)
Temperature Maxi: 6 °C
Temperature Min: 6 °C
Humidité : 78%
Condition : Couvert



Warning: count(): Parameter must be an array or an object that implements Countable in /homepages/6/d509196549/htdocs/droneoxygene/briefing.php on line 743
WEBCAM POUR SAINT-PERAY

Réglementation

Voler en sécurité

CARTES AERONAUTIQUE 1/500.000
CARTES VAC (LFLU)
SUP AIP




Chargement des AIP...
NOTAM (SAINT-PERAY + Terrain à proximité / FIR )




Chargement des NOTAMS...
CONTACT PREFECTURE 07


Avertissement : Les données mises à disposition sont indicatives. Oxygène Drone ne pourra être tenu responsable de dégâts causés aux biens et aux personnes.